sensor_id;sensor_type;location;lat;lon;timestamp;P1;durP1;ratioP1;P2;durP2;ratioP2
13079;SDS011;6606;49.154;9.280;2022-08-16T00:01:48;4.30;;;3.90;;
13079;SDS011;6606;49.154;9.280;2022-08-16T00:04:15;3.63;;;3.33;;
13079;SDS011;6606;49.154;9.280;2022-08-16T00:06:42;4.78;;;3.90;;
13079;SDS011;6606;49.154;9.280;2022-08-16T00:09:09;7.20;;;3.33;;
13079;SDS011;6606;49.154;9.280;2022-08-16T00:11:37;3.80;;;3.40;;
13079;SDS011;6606;49.154;9.280;2022-08-16T00:14:04;5.13;;;4.47;;
13079;SDS011;6606;49.154;9.280;2022-08-16T00:16:35;4.27;;;3.83;;
13079;SDS011;6606;49.154;9.280;2022-08-16T00:19:02;5.90;;;4.10;;
13079;SDS011;6606;49.154;9.280;2022-08-16T00:21:30;4.60;;;4.20;;
13079;SDS011;6606;49.154;9.280;2022-08-16T00:23:58;5.53;;;3.80;;
13079;SDS011;6606;49.154;9.280;2022-08-16T00:26:25;4.37;;;3.73;;
13079;SDS011;6606;49.154;9.280;2022-08-16T00:28:52;4.60;;;3.63;;
13079;SDS011;6606;49.154;9.280;2022-08-16T00:31:19;4.67;;;3.17;;
13079;SDS011;6606;49.154;9.280;2022-08-16T00:33:47;4.57;;;3.67;;
13079;SDS011;6606;49.154;9.280;2022-08-16T00:36:14;7.70;;;3.83;;
13079;SDS011;6606;49.154;9.280;2022-08-16T00:38:40;4.65;;;3.83;;
13079;SDS011;6606;49.154;9.280;2022-08-16T00:41:07;4.43;;;3.53;;
13079;SDS011;6606;49.154;9.280;2022-08-16T00:43:35;4.10;;;3.28;;
13079;SDS011;6606;49.154;9.280;2022-08-16T00:46:05;3.47;;;3.17;;
13079;SDS011;6606;49.154;9.280;2022-08-16T00:48:35;3.45;;;3.15;;
13079;SDS011;6606;49.154;9.280;2022-08-16T00:51:04;4.00;;;3.60;;
13079;SDS011;6606;49.154;9.280;2022-08-16T00:53:33;4.50;;;3.33;;
13079;SDS011;6606;49.154;9.280;2022-08-16T00:56:01;4.90;;;3.87;;
13079;SDS011;6606;49.154;9.280;2022-08-16T00:58:32;3.50;;;3.20;;
13079;SDS011;6606;49.154;9.280;2022-08-16T01:01:00;4.37;;;3.93;;
13079;SDS011;6606;49.154;9.280;2022-08-16T01:03:27;4.10;;;3.43;;
13079;SDS011;6606;49.154;9.280;2022-08-16T01:05:55;4.30;;;3.90;;
13079;SDS011;6606;49.154;9.280;2022-08-16T01:08:23;5.90;;;3.80;;
13079;SDS011;6606;49.154;9.280;2022-08-16T01:10:51;4.53;;;4.10;;
13079;SDS011;6606;49.154;9.280;2022-08-16T01:13:20;6.90;;;4.47;;
13079;SDS011;6606;49.154;9.280;2022-08-16T01:15:50;7.33;;;3.90;;
13079;SDS011;6606;49.154;9.280;2022-08-16T01:18:20;8.23;;;3.73;;
13079;SDS011;6606;49.154;9.280;2022-08-16T01:20:51;6.97;;;3.57;;
13079;SDS011;6606;49.154;9.280;2022-08-16T01:23:25;4.53;;;3.53;;
13079;SDS011;6606;49.154;9.280;2022-08-16T01:26:02;5.80;;;3.37;;
13079;SDS011;6606;49.154;9.280;2022-08-16T01:28:29;6.60;;;3.80;;
13079;SDS011;6606;49.154;9.280;2022-08-16T01:30:56;4.27;;;3.30;;
13079;SDS011;6606;49.154;9.280;2022-08-16T01:33:24;5.63;;;4.30;;
13079;SDS011;6606;49.154;9.280;2022-08-16T01:35:53;8.63;;;4.83;;
13079;SDS011;6606;49.154;9.280;2022-08-16T01:38:24;5.07;;;3.90;;
13079;SDS011;6606;49.154;9.280;2022-08-16T01:40:56;6.00;;;4.40;;
13079;SDS011;6606;49.154;9.280;2022-08-16T01:43:26;4.23;;;3.83;;
13079;SDS011;6606;49.154;9.280;2022-08-16T01:45:53;6.03;;;3.70;;
13079;SDS011;6606;49.154;9.280;2022-08-16T01:48:21;3.83;;;3.40;;
13079;SDS011;6606;49.154;9.280;2022-08-16T01:50:51;4.50;;;4.10;;
13079;SDS011;6606;49.154;9.280;2022-08-16T01:53:18;4.40;;;4.00;;
13079;SDS011;6606;49.154;9.280;2022-08-16T01:56:09;6.63;;;4.10;;
13079;SDS011;6606;49.154;9.280;2022-08-16T01:58:37;5.77;;;3.97;;
13079;SDS011;6606;49.154;9.280;2022-08-16T02:01:04;3.43;;;3.13;;
13079;SDS011;6606;49.154;9.280;2022-08-16T02:03:32;6.07;;;3.90;;
13079;SDS011;6606;49.154;9.280;2022-08-16T02:05:58;8.33;;;4.73;;
13079;SDS011;6606;49.154;9.280;2022-08-16T02:08:26;4.35;;;3.95;;
13079;SDS011;6606;49.154;9.280;2022-08-16T02:10:53;5.10;;;4.13;;
13079;SDS011;6606;49.154;9.280;2022-08-16T02:13:21;4.77;;;4.20;;
13079;SDS011;6606;49.154;9.280;2022-08-16T02:15:50;6.90;;;4.23;;
13079;SDS011;6606;49.154;9.280;2022-08-16T02:18:17;4.63;;;4.07;;
13079;SDS011;6606;49.154;9.280;2022-08-16T02:20:45;4.90;;;3.90;;
13079;SDS011;6606;49.154;9.280;2022-08-16T02:23:14;7.23;;;3.77;;
13079;SDS011;6606;49.154;9.280;2022-08-16T02:25:42;6.30;;;3.97;;
13079;SDS011;6606;49.154;9.280;2022-08-16T02:28:11;6.33;;;3.77;;
13079;SDS011;6606;49.154;9.280;2022-08-16T02:30:38;6.60;;;3.70;;
13079;SDS011;6606;49.154;9.280;2022-08-16T02:33:06;5.60;;;3.47;;
13079;SDS011;6606;49.154;9.280;2022-08-16T02:35:33;4.50;;;3.73;;
13079;SDS011;6606;49.154;9.280;2022-08-16T02:38:01;3.70;;;3.40;;
13079;SDS011;6606;49.154;9.280;2022-08-16T02:40:29;5.40;;;3.60;;
13079;SDS011;6606;49.154;9.280;2022-08-16T02:42:55;5.47;;;4.17;;
13079;SDS011;6606;49.154;9.280;2022-08-16T02:45:24;5.50;;;4.90;;
13079;SDS011;6606;49.154;9.280;2022-08-16T02:47:52;4.83;;;3.83;;
13079;SDS011;6606;49.154;9.280;2022-08-16T02:50:21;5.37;;;3.87;;
13079;SDS011;6606;49.154;9.280;2022-08-16T02:52:48;5.20;;;4.10;;
13079;SDS011;6606;49.154;9.280;2022-08-16T02:55:15;5.60;;;4.70;;
13079;SDS011;6606;49.154;9.280;2022-08-16T02:57:42;5.50;;;4.33;;
13079;SDS011;6606;49.154;9.280;2022-08-16T03:00:10;5.93;;;4.80;;
13079;SDS011;6606;49.154;9.280;2022-08-16T03:02:39;7.03;;;4.93;;
13079;SDS011;6606;49.154;9.280;2022-08-16T03:05:10;4.83;;;4.37;;
13079;SDS011;6606;49.154;9.280;2022-08-16T03:07:40;5.50;;;4.40;;
13079;SDS011;6606;49.154;9.280;2022-08-16T03:10:09;5.30;;;4.47;;
13079;SDS011;6606;49.154;9.280;2022-08-16T03:12:40;6.63;;;4.00;;
13079;SDS011;6606;49.154;9.280;2022-08-16T03:15:11;5.13;;;4.63;;
13079;SDS011;6606;49.154;9.280;2022-08-16T03:17:40;5.00;;;4.43;;
13079;SDS011;6606;49.154;9.280;2022-08-16T03:20:09;5.40;;;4.50;;
13079;SDS011;6606;49.154;9.280;2022-08-16T03:22:40;5.93;;;5.07;;
13079;SDS011;6606;49.154;9.280;2022-08-16T03:25:12;4.73;;;3.97;;
13079;SDS011;6606;49.154;9.280;2022-08-16T03:27:50;4.73;;;4.17;;
13079;SDS011;6606;49.154;9.280;2022-08-16T03:30:19;5.57;;;4.70;;
13079;SDS011;6606;49.154;9.280;2022-08-16T03:32:52;6.60;;;4.80;;
13079;SDS011;6606;49.154;9.280;2022-08-16T03:35:24;5.53;;;4.53;;
13079;SDS011;6606;49.154;9.280;2022-08-16T03:37:55;9.50;;;4.10;;
13079;SDS011;6606;49.154;9.280;2022-08-16T03:40:27;8.60;;;4.73;;
13079;SDS011;6606;49.154;9.280;2022-08-16T03:42:54;5.67;;;4.80;;
13079;SDS011;6606;49.154;9.280;2022-08-16T03:45:21;5.60;;;4.23;;
13079;SDS011;6606;49.154;9.280;2022-08-16T03:47:49;4.80;;;4.30;;
13079;SDS011;6606;49.154;9.280;2022-08-16T03:50:17;5.00;;;3.90;;
13079;SDS011;6606;49.154;9.280;2022-08-16T03:52:44;5.00;;;4.30;;
13079;SDS011;6606;49.154;9.280;2022-08-16T03:55:15;5.17;;;4.27;;
13079;SDS011;6606;49.154;9.280;2022-08-16T03:57:42;6.20;;;4.33;;
13079;SDS011;6606;49.154;9.280;2022-08-16T04:00:11;7.17;;;4.60;;
13079;SDS011;6606;49.154;9.280;2022-08-16T04:02:40;6.90;;;4.70;;
13079;SDS011;6606;49.154;9.280;2022-08-16T04:05:12;5.77;;;4.63;;
13079;SDS011;6606;49.154;9.280;2022-08-16T04:07:41;10.17;;;5.03;;
13079;SDS011;6606;49.154;9.280;2022-08-16T04:10:09;6.60;;;5.37;;
13079;SDS011;6606;49.154;9.280;2022-08-16T04:12:38;7.07;;;5.27;;
13079;SDS011;6606;49.154;9.280;2022-08-16T04:15:08;7.20;;;5.37;;
13079;SDS011;6606;49.154;9.280;2022-08-16T04:17:42;8.03;;;5.27;;
13079;SDS011;6606;49.154;9.280;2022-08-16T04:20:10;6.80;;;5.43;;
13079;SDS011;6606;49.154;9.280;2022-08-16T04:22:39;5.27;;;4.70;;
13079;SDS011;6606;49.154;9.280;2022-08-16T04:25:08;7.10;;;5.17;;
13079;SDS011;6606;49.154;9.280;2022-08-16T04:27:36;7.63;;;4.27;;
13079;SDS011;6606;49.154;9.280;2022-08-16T04:30:10;8.33;;;4.80;;
13079;SDS011;6606;49.154;9.280;2022-08-16T04:32:44;6.60;;;5.00;;
13079;SDS011;6606;49.154;9.280;2022-08-16T04:35:12;9.83;;;4.63;;
13079;SDS011;6606;49.154;9.280;2022-08-16T04:37:43;7.13;;;4.70;;
13079;SDS011;6606;49.154;9.280;2022-08-16T04:40:17;7.03;;;4.80;;
13079;SDS011;6606;49.154;9.280;2022-08-16T04:42:46;6.23;;;4.40;;
13079;SDS011;6606;49.154;9.280;2022-08-16T04:45:15;9.40;;;5.30;;
13079;SDS011;6606;49.154;9.280;2022-08-16T04:47:43;7.23;;;5.20;;
13079;SDS011;6606;49.154;9.280;2022-08-16T04:50:14;7.73;;;4.60;;
13079;SDS011;6606;49.154;9.280;2022-08-16T04:52:56;8.77;;;5.20;;
13079;SDS011;6606;49.154;9.280;2022-08-16T04:55:25;4.93;;;4.30;;
13079;SDS011;6606;49.154;9.280;2022-08-16T04:57:55;9.07;;;4.97;;
13079;SDS011;6606;49.154;9.280;2022-08-16T05:00:23;5.30;;;4.37;;
13079;SDS011;6606;49.154;9.280;2022-08-16T05:02:52;6.23;;;4.13;;
13079;SDS011;6606;49.154;9.280;2022-08-16T05:05:20;5.00;;;4.10;;
13079;SDS011;6606;49.154;9.280;2022-08-16T05:07:48;4.57;;;4.07;;
13079;SDS011;6606;49.154;9.280;2022-08-16T05:10:16;5.07;;;4.50;;
13079;SDS011;6606;49.154;9.280;2022-08-16T05:12:43;7.23;;;4.23;;
13079;SDS011;6606;49.154;9.280;2022-08-16T05:15:12;5.17;;;4.67;;
13079;SDS011;6606;49.154;9.280;2022-08-16T05:17:39;4.90;;;4.07;;
13079;SDS011;6606;49.154;9.280;2022-08-16T05:20:11;6.87;;;4.33;;
13079;SDS011;6606;49.154;9.280;2022-08-16T05:22:39;5.73;;;5.17;;
13079;SDS011;6606;49.154;9.280;2022-08-16T05:25:09;6.50;;;4.47;;
13079;SDS011;6606;49.154;9.280;2022-08-16T05:27:42;6.33;;;4.60;;
13079;SDS011;6606;49.154;9.280;2022-08-16T05:30:13;5.00;;;4.50;;
13079;SDS011;6606;49.154;9.280;2022-08-16T05:32:42;5.70;;;5.00;;
13079;SDS011;6606;49.154;9.280;2022-08-16T05:35:11;5.87;;;4.67;;
13079;SDS011;6606;49.154;9.280;2022-08-16T05:38:05;7.75;;;4.90;;
13079;SDS011;6606;49.154;9.280;2022-08-16T05:40:32;5.50;;;5.00;;
13079;SDS011;6606;49.154;9.280;2022-08-16T05:43:00;7.07;;;5.30;;
13079;SDS011;6606;49.154;9.280;2022-08-16T05:45:28;8.38;;;5.75;;
13079;SDS011;6606;49.154;9.280;2022-08-16T05:47:58;6.68;;;5.10;;
13079;SDS011;6606;49.154;9.280;2022-08-16T05:50:29;5.05;;;4.65;;
13079;SDS011;6606;49.154;9.280;2022-08-16T05:52:56;5.57;;;4.10;;
13079;SDS011;6606;49.154;9.280;2022-08-16T05:55:23;5.35;;;4.25;;
13079;SDS011;6606;49.154;9.280;2022-08-16T05:57:50;5.45;;;4.82;;
13079;SDS011;6606;49.154;9.280;2022-08-16T06:00:17;5.30;;;4.80;;
13079;SDS011;6606;49.154;9.280;2022-08-16T06:02:47;6.93;;;5.03;;
13079;SDS011;6606;49.154;9.280;2022-08-16T06:05:46;6.53;;;5.35;;
13079;SDS011;6606;49.154;9.280;2022-08-16T06:08:13;5.75;;;4.80;;
13079;SDS011;6606;49.154;9.280;2022-08-16T06:10:45;6.35;;;4.25;;
13079;SDS011;6606;49.154;9.280;2022-08-16T06:13:12;5.07;;;4.10;;
13079;SDS011;6606;49.154;9.280;2022-08-16T06:15:38;5.13;;;4.63;;
13079;SDS011;6606;49.154;9.280;2022-08-16T06:18:07;6.00;;;4.50;;
13079;SDS011;6606;49.154;9.280;2022-08-16T06:20:33;4.82;;;4.05;;
13079;SDS011;6606;49.154;9.280;2022-08-16T06:23:01;6.90;;;4.88;;
13079;SDS011;6606;49.154;9.280;2022-08-16T06:25:34;7.18;;;5.55;;
13079;SDS011;6606;49.154;9.280;2022-08-16T06:28:02;6.65;;;5.30;;
13079;SDS011;6606;49.154;9.280;2022-08-16T06:30:30;5.85;;;4.97;;
13079;SDS011;6606;49.154;9.280;2022-08-16T06:32:57;6.82;;;5.20;;
13079;SDS011;6606;49.154;9.280;2022-08-16T06:35:27;5.63;;;4.72;;
13079;SDS011;6606;49.154;9.280;2022-08-16T06:37:53;6.72;;;5.10;;
13079;SDS011;6606;49.154;9.280;2022-08-16T06:40:20;5.72;;;4.80;;
13079;SDS011;6606;49.154;9.280;2022-08-16T06:42:51;5.93;;;4.35;;
13079;SDS011;6606;49.154;9.280;2022-08-16T06:45:33;6.05;;;4.40;;
13079;SDS011;6606;49.154;9.280;2022-08-16T06:48:11;7.22;;;4.60;;
13079;SDS011;6606;49.154;9.280;2022-08-16T06:50:40;5.20;;;4.63;;
13079;SDS011;6606;49.154;9.280;2022-08-16T06:53:07;6.18;;;5.43;;
13079;SDS011;6606;49.154;9.280;2022-08-16T06:55:42;5.18;;;4.45;;
13079;SDS011;6606;49.154;9.280;2022-08-16T06:58:12;5.47;;;4.57;;
13079;SDS011;6606;49.154;9.280;2022-08-16T07:00:39;4.97;;;4.35;;
13079;SDS011;6606;49.154;9.280;2022-08-16T07:03:08;6.40;;;4.88;;
13079;SDS011;6606;49.154;9.280;2022-08-16T07:05:35;5.97;;;4.80;;
13079;SDS011;6606;49.154;9.280;2022-08-16T07:08:11;9.77;;;4.30;;
13079;SDS011;6606;49.154;9.280;2022-08-16T07:10:47;4.45;;;3.78;;
13079;SDS011;6606;49.154;9.280;2022-08-16T07:13:16;5.05;;;4.25;;
13079;SDS011;6606;49.154;9.280;2022-08-16T07:15:43;6.57;;;4.50;;
13079;SDS011;6606;49.154;9.280;2022-08-16T07:18:10;3.92;;;3.53;;
13079;SDS011;6606;49.154;9.280;2022-08-16T07:20:37;5.20;;;3.90;;
13079;SDS011;6606;49.154;9.280;2022-08-16T07:23:04;6.75;;;3.20;;
13079;SDS011;6606;49.154;9.280;2022-08-16T07:25:37;5.35;;;3.20;;
13079;SDS011;6606;49.154;9.280;2022-08-16T07:28:05;4.75;;;2.90;;
13079;SDS011;6606;49.154;9.280;2022-08-16T07:30:32;5.00;;;3.20;;
13079;SDS011;6606;49.154;9.280;2022-08-16T07:33:01;3.55;;;3.15;;
13079;SDS011;6606;49.154;9.280;2022-08-16T07:35:30;7.00;;;2.70;;
13079;SDS011;6606;49.154;9.280;2022-08-16T07:37:57;4.70;;;2.70;;
13079;SDS011;6606;49.154;9.280;2022-08-16T07:40:35;4.65;;;2.92;;
13079;SDS011;6606;49.154;9.280;2022-08-16T07:43:04;4.05;;;2.88;;
13079;SDS011;6606;49.154;9.280;2022-08-16T07:45:31;2.95;;;2.65;;
13079;SDS011;6606;49.154;9.280;2022-08-16T07:47:58;4.70;;;3.13;;
13079;SDS011;6606;49.154;9.280;2022-08-16T07:50:26;4.03;;;2.60;;
13079;SDS011;6606;49.154;9.280;2022-08-16T07:52:53;3.88;;;2.70;;
13079;SDS011;6606;49.154;9.280;2022-08-16T07:55:19;4.13;;;2.60;;
13079;SDS011;6606;49.154;9.280;2022-08-16T07:57:47;2.63;;;2.25;;
13079;SDS011;6606;49.154;9.280;2022-08-16T08:00:15;5.40;;;3.00;;
13079;SDS011;6606;49.154;9.280;2022-08-16T08:02:46;4.28;;;2.40;;
13079;SDS011;6606;49.154;9.280;2022-08-16T08:05:20;3.85;;;2.65;;
13079;SDS011;6606;49.154;9.280;2022-08-16T08:07:50;3.88;;;2.83;;
13079;SDS011;6606;49.154;9.280;2022-08-16T08:10:18;4.75;;;3.20;;
13079;SDS011;6606;49.154;9.280;2022-08-16T08:12:46;5.50;;;2.90;;
13079;SDS011;6606;49.154;9.280;2022-08-16T08:15:15;4.22;;;2.70;;
13079;SDS011;6606;49.154;9.280;2022-08-16T08:17:43;3.30;;;3.00;;
13079;SDS011;6606;49.154;9.280;2022-08-16T08:20:15;5.22;;;3.70;;
13079;SDS011;6606;49.154;9.280;2022-08-16T08:22:43;4.18;;;2.78;;
13079;SDS011;6606;49.154;9.280;2022-08-16T08:25:12;3.97;;;3.05;;
13079;SDS011;6606;49.154;9.280;2022-08-16T08:27:39;3.25;;;2.95;;
13079;SDS011;6606;49.154;9.280;2022-08-16T08:30:10;3.92;;;2.90;;
13079;SDS011;6606;49.154;9.280;2022-08-16T08:32:40;4.40;;;2.88;;
13079;SDS011;6606;49.154;9.280;2022-08-16T08:35:07;3.75;;;3.00;;
13079;SDS011;6606;49.154;9.280;2022-08-16T08:37:37;4.15;;;3.00;;
13079;SDS011;6606;49.154;9.280;2022-08-16T08:40:07;3.20;;;2.90;;
13079;SDS011;6606;49.154;9.280;2022-08-16T08:42:35;4.25;;;3.00;;
13079;SDS011;6606;49.154;9.280;2022-08-16T08:45:03;3.53;;;2.75;;
13079;SDS011;6606;49.154;9.280;2022-08-16T08:47:31;5.38;;;3.28;;
13079;SDS011;6606;49.154;9.280;2022-08-16T08:49:59;3.65;;;2.88;;
13079;SDS011;6606;49.154;9.280;2022-08-16T08:52:29;3.72;;;3.20;;
13079;SDS011;6606;49.154;9.280;2022-08-16T08:54:55;4.72;;;3.33;;
13079;SDS011;6606;49.154;9.280;2022-08-16T08:57:23;4.00;;;2.97;;
13079;SDS011;6606;49.154;9.280;2022-08-16T09:00:15;4.10;;;3.58;;
13079;SDS011;6606;49.154;9.280;2022-08-16T09:02:44;4.07;;;3.30;;
13079;SDS011;6606;49.154;9.280;2022-08-16T09:05:12;5.07;;;3.63;;
13079;SDS011;6606;49.154;9.280;2022-08-16T09:07:39;5.15;;;3.65;;
13079;SDS011;6606;49.154;9.280;2022-08-16T09:10:07;4.57;;;3.78;;
13079;SDS011;6606;49.154;9.280;2022-08-16T09:12:36;4.57;;;3.60;;
13079;SDS011;6606;49.154;9.280;2022-08-16T09:15:16;6.93;;;3.97;;
13079;SDS011;6606;49.154;9.280;2022-08-16T09:17:46;5.63;;;3.97;;
13079;SDS011;6606;49.154;9.280;2022-08-16T09:20:14;4.40;;;3.60;;
13079;SDS011;6606;49.154;9.280;2022-08-16T09:22:41;5.35;;;3.65;;
13079;SDS011;6606;49.154;9.280;2022-08-16T09:25:09;5.45;;;3.92;;
13079;SDS011;6606;49.154;9.280;2022-08-16T09:27:38;5.90;;;3.58;;
13079;SDS011;6606;49.154;9.280;2022-08-16T09:30:05;5.97;;;4.00;;
13079;SDS011;6606;49.154;9.280;2022-08-16T09:32:33;4.88;;;3.83;;
13079;SDS011;6606;49.154;9.280;2022-08-16T09:35:01;4.50;;;3.90;;
13079;SDS011;6606;49.154;9.280;2022-08-16T09:37:31;4.72;;;3.80;;
13079;SDS011;6606;49.154;9.280;2022-08-16T09:39:58;5.13;;;4.05;;
13079;SDS011;6606;49.154;9.280;2022-08-16T09:42:25;6.28;;;4.28;;
13079;SDS011;6606;49.154;9.280;2022-08-16T09:44:52;6.07;;;4.35;;
13079;SDS011;6606;49.154;9.280;2022-08-16T09:47:19;6.15;;;4.13;;
13079;SDS011;6606;49.154;9.280;2022-08-16T09:49:46;5.20;;;3.70;;
13079;SDS011;6606;49.154;9.280;2022-08-16T09:52:14;5.63;;;3.70;;
13079;SDS011;6606;49.154;9.280;2022-08-16T09:54:42;5.32;;;3.72;;
13079;SDS011;6606;49.154;9.280;2022-08-16T09:57:09;3.83;;;3.47;;
13079;SDS011;6606;49.154;9.280;2022-08-16T09:59:36;4.90;;;3.70;;
13079;SDS011;6606;49.154;9.280;2022-08-16T10:02:02;5.78;;;4.00;;
13079;SDS011;6606;49.154;9.280;2022-08-16T10:04:30;4.35;;;3.85;;
13079;SDS011;6606;49.154;9.280;2022-08-16T10:06:56;3.95;;;3.53;;
13079;SDS011;6606;49.154;9.280;2022-08-16T10:09:23;5.05;;;3.80;;
13079;SDS011;6606;49.154;9.280;2022-08-16T10:11:54;4.47;;;4.00;;
13079;SDS011;6606;49.154;9.280;2022-08-16T10:14:38;4.47;;;3.50;;
13079;SDS011;6606;49.154;9.280;2022-08-16T10:17:05;5.47;;;3.80;;
13079;SDS011;6606;49.154;9.280;2022-08-16T10:19:33;6.68;;;3.72;;
13079;SDS011;6606;49.154;9.280;2022-08-16T10:22:00;4.88;;;3.38;;
13079;SDS011;6606;49.154;9.280;2022-08-16T10:24:27;5.25;;;3.20;;
13079;SDS011;6606;49.154;9.280;2022-08-16T10:26:55;3.95;;;3.35;;
13079;SDS011;6606;49.154;9.280;2022-08-16T10:29:22;4.55;;;3.58;;
13079;SDS011;6606;49.154;9.280;2022-08-16T10:31:49;5.18;;;3.30;;
13079;SDS011;6606;49.154;9.280;2022-08-16T10:34:15;6.38;;;3.50;;
13079;SDS011;6606;49.154;9.280;2022-08-16T10:36:42;6.07;;;3.33;;
13079;SDS011;6606;49.154;9.280;2022-08-16T10:39:09;4.63;;;3.55;;
13079;SDS011;6606;49.154;9.280;2022-08-16T10:41:35;4.97;;;3.53;;
13079;SDS011;6606;49.154;9.280;2022-08-16T10:44:04;4.50;;;3.72;;
13079;SDS011;6606;49.154;9.280;2022-08-16T10:46:31;5.03;;;3.58;;
13079;SDS011;6606;49.154;9.280;2022-08-16T10:48:58;4.85;;;3.42;;
13079;SDS011;6606;49.154;9.280;2022-08-16T10:51:25;3.67;;;3.22;;
13079;SDS011;6606;49.154;9.280;2022-08-16T10:53:51;3.78;;;3.30;;
13079;SDS011;6606;49.154;9.280;2022-08-16T10:56:18;3.85;;;3.33;;
13079;SDS011;6606;49.154;9.280;2022-08-16T10:58:45;3.72;;;3.05;;
13079;SDS011;6606;49.154;9.280;2022-08-16T11:01:13;3.72;;;3.22;;
13079;SDS011;6606;49.154;9.280;2022-08-16T11:03:40;4.25;;;3.30;;
13079;SDS011;6606;49.154;9.280;2022-08-16T11:06:07;6.38;;;3.28;;
13079;SDS011;6606;49.154;9.280;2022-08-16T11:08:35;4.18;;;3.53;;
13079;SDS011;6606;49.154;9.280;2022-08-16T11:11:03;5.85;;;3.40;;
13079;SDS011;6606;49.154;9.280;2022-08-16T11:13:31;5.45;;;3.22;;
13079;SDS011;6606;49.154;9.280;2022-08-16T11:15:58;5.18;;;3.40;;
13079;SDS011;6606;49.154;9.280;2022-08-16T11:18:27;6.13;;;3.33;;
13079;SDS011;6606;49.154;9.280;2022-08-16T11:20:54;4.40;;;3.63;;
13079;SDS011;6606;49.154;9.280;2022-08-16T11:23:22;3.78;;;3.40;;
13079;SDS011;6606;49.154;9.280;2022-08-16T11:25:50;4.03;;;3.38;;
13079;SDS011;6606;49.154;9.280;2022-08-16T11:28:17;4.88;;;3.45;;
13079;SDS011;6606;49.154;9.280;2022-08-16T11:30:44;5.63;;;3.55;;
13079;SDS011;6606;49.154;9.280;2022-08-16T11:33:11;7.30;;;3.70;;
13079;SDS011;6606;49.154;9.280;2022-08-16T11:35:39;4.05;;;3.42;;
13079;SDS011;6606;49.154;9.280;2022-08-16T11:38:07;4.18;;;3.42;;
13079;SDS011;6606;49.154;9.280;2022-08-16T11:40:39;3.35;;;3.05;;
13079;SDS011;6606;49.154;9.280;2022-08-16T11:43:11;4.28;;;3.35;;
13079;SDS011;6606;49.154;9.280;2022-08-16T11:45:38;5.10;;;3.40;;
13079;SDS011;6606;49.154;9.280;2022-08-16T11:48:06;4.35;;;3.33;;
13079;SDS011;6606;49.154;9.280;2022-08-16T11:50:33;5.13;;;3.65;;
13079;SDS011;6606;49.154;9.280;2022-08-16T11:53:02;5.43;;;3.53;;
13079;SDS011;6606;49.154;9.280;2022-08-16T11:55:30;4.35;;;3.63;;
13079;SDS011;6606;49.154;9.280;2022-08-16T11:57:57;5.20;;;3.45;;
13079;SDS011;6606;49.154;9.280;2022-08-16T12:00:24;6.88;;;3.20;;
13079;SDS011;6606;49.154;9.280;2022-08-16T12:02:53;5.03;;;3.20;;
13079;SDS011;6606;49.154;9.280;2022-08-16T12:05:19;5.55;;;3.60;;
13079;SDS011;6606;49.154;9.280;2022-08-16T12:07:47;8.20;;;2.95;;
13079;SDS011;6606;49.154;9.280;2022-08-16T12:10:17;5.80;;;2.85;;
13079;SDS011;6606;49.154;9.280;2022-08-16T12:12:45;3.40;;;3.05;;
13079;SDS011;6606;49.154;9.280;2022-08-16T12:15:12;4.47;;;2.92;;
13079;SDS011;6606;49.154;9.280;2022-08-16T12:17:40;5.15;;;2.95;;
13079;SDS011;6606;49.154;9.280;2022-08-16T12:20:09;3.42;;;2.80;;
13079;SDS011;6606;49.154;9.280;2022-08-16T12:22:38;4.70;;;3.20;;
13079;SDS011;6606;49.154;9.280;2022-08-16T12:25:05;4.28;;;2.90;;
13079;SDS011;6606;49.154;9.280;2022-08-16T12:27:36;5.15;;;3.40;;
13079;SDS011;6606;49.154;9.280;2022-08-16T12:30:03;5.13;;;3.28;;
13079;SDS011;6606;49.154;9.280;2022-08-16T12:32:31;3.72;;;3.10;;
13079;SDS011;6606;49.154;9.280;2022-08-16T12:34:57;3.78;;;2.80;;
13079;SDS011;6606;49.154;9.280;2022-08-16T12:37:26;5.03;;;3.10;;
13079;SDS011;6606;49.154;9.280;2022-08-16T12:39:53;3.55;;;2.70;;
13079;SDS011;6606;49.154;9.280;2022-08-16T12:42:22;7.35;;;3.05;;
13079;SDS011;6606;49.154;9.280;2022-08-16T12:44:50;4.13;;;2.67;;
13079;SDS011;6606;49.154;9.280;2022-08-16T12:47:18;5.38;;;3.00;;
13079;SDS011;6606;49.154;9.280;2022-08-16T12:50:02;3.92;;;3.00;;
13079;SDS011;6606;49.154;9.280;2022-08-16T12:52:30;3.97;;;2.83;;
13079;SDS011;6606;49.154;9.280;2022-08-16T12:54:57;5.25;;;2.80;;
13079;SDS011;6606;49.154;9.280;2022-08-16T12:57:23;3.88;;;2.97;;
13079;SDS011;6606;49.154;9.280;2022-08-16T12:59:52;3.97;;;2.70;;
13079;SDS011;6606;49.154;9.280;2022-08-16T13:02:18;3.20;;;2.88;;
13079;SDS011;6606;49.154;9.280;2022-08-16T13:04:45;3.38;;;2.70;;
13079;SDS011;6606;49.154;9.280;2022-08-16T13:07:12;4.15;;;2.78;;
13079;SDS011;6606;49.154;9.280;2022-08-16T13:09:39;3.00;;;2.65;;
13079;SDS011;6606;49.154;9.280;2022-08-16T13:12:16;4.55;;;2.83;;
13079;SDS011;6606;49.154;9.280;2022-08-16T13:14:47;2.92;;;2.63;;
13079;SDS011;6606;49.154;9.280;2022-08-16T13:17:17;8.10;;;3.10;;
13079;SDS011;6606;49.154;9.280;2022-08-16T13:19:48;3.55;;;2.55;;
13079;SDS011;6606;49.154;9.280;2022-08-16T13:22:17;3.55;;;2.60;;
13079;SDS011;6606;49.154;9.280;2022-08-16T13:24:43;4.63;;;2.70;;
13079;SDS011;6606;49.154;9.280;2022-08-16T13:27:10;3.75;;;2.80;;
13079;SDS011;6606;49.154;9.280;2022-08-16T13:29:37;4.13;;;2.60;;
13079;SDS011;6606;49.154;9.280;2022-08-16T13:32:04;4.68;;;2.60;;
13079;SDS011;6606;49.154;9.280;2022-08-16T13:34:33;4.63;;;2.60;;
13079;SDS011;6606;49.154;9.280;2022-08-16T13:37:00;4.05;;;2.75;;
13079;SDS011;6606;49.154;9.280;2022-08-16T13:39:27;4.65;;;2.95;;
13079;SDS011;6606;49.154;9.280;2022-08-16T13:41:55;4.43;;;2.88;;
13079;SDS011;6606;49.154;9.280;2022-08-16T13:44:25;4.25;;;2.78;;
13079;SDS011;6606;49.154;9.280;2022-08-16T13:46:52;3.50;;;2.47;;
13079;SDS011;6606;49.154;9.280;2022-08-16T13:49:18;2.88;;;2.33;;
13079;SDS011;6606;49.154;9.280;2022-08-16T13:51:46;2.90;;;2.55;;
13079;SDS011;6606;49.154;9.280;2022-08-16T13:54:13;4.10;;;2.35;;
13079;SDS011;6606;49.154;9.280;2022-08-16T13:56:40;3.13;;;2.20;;
13079;SDS011;6606;49.154;9.280;2022-08-16T13:59:08;3.03;;;2.53;;
13079;SDS011;6606;49.154;9.280;2022-08-16T14:01:37;4.97;;;2.42;;
13079;SDS011;6606;49.154;9.280;2022-08-16T14:04:04;3.20;;;2.40;;
13079;SDS011;6606;49.154;9.280;2022-08-16T14:06:31;2.75;;;2.55;;
13079;SDS011;6606;49.154;9.280;2022-08-16T14:08:59;3.33;;;2.30;;
13079;SDS011;6606;49.154;9.280;2022-08-16T14:11:26;2.92;;;2.55;;
13079;SDS011;6606;49.154;9.280;2022-08-16T14:13:53;2.35;;;2.15;;
13079;SDS011;6606;49.154;9.280;2022-08-16T14:16:19;3.63;;;2.05;;
13079;SDS011;6606;49.154;9.280;2022-08-16T14:18:46;3.22;;;2.38;;
13079;SDS011;6606;49.154;9.280;2022-08-16T14:21:13;2.78;;;2.25;;
13079;SDS011;6606;49.154;9.280;2022-08-16T14:23:40;2.88;;;2.50;;
13079;SDS011;6606;49.154;9.280;2022-08-16T14:26:08;4.00;;;2.60;;
13079;SDS011;6606;49.154;9.280;2022-08-16T14:28:35;3.72;;;2.47;;
13079;SDS011;6606;49.154;9.280;2022-08-16T14:31:02;2.80;;;2.40;;
13079;SDS011;6606;49.154;9.280;2022-08-16T14:33:29;3.50;;;2.30;;
13079;SDS011;6606;49.154;9.280;2022-08-16T14:35:56;4.40;;;2.47;;
13079;SDS011;6606;49.154;9.280;2022-08-16T14:38:22;4.10;;;2.25;;
13079;SDS011;6606;49.154;9.280;2022-08-16T14:40:49;3.03;;;2.30;;
13079;SDS011;6606;49.154;9.280;2022-08-16T14:43:18;2.38;;;2.10;;
13079;SDS011;6606;49.154;9.280;2022-08-16T14:45:44;2.83;;;2.10;;
13079;SDS011;6606;49.154;9.280;2022-08-16T14:48:11;3.65;;;2.33;;
13079;SDS011;6606;49.154;9.280;2022-08-16T14:50:38;3.03;;;2.38;;
13079;SDS011;6606;49.154;9.280;2022-08-16T14:53:06;5.35;;;2.55;;
13079;SDS011;6606;49.154;9.280;2022-08-16T14:55:34;2.30;;;2.10;;
13079;SDS011;6606;49.154;9.280;2022-08-16T14:58:02;4.20;;;2.60;;
13079;SDS011;6606;49.154;9.280;2022-08-16T15:00:32;5.00;;;2.50;;
13079;SDS011;6606;49.154;9.280;2022-08-16T15:03:00;3.75;;;2.35;;
13079;SDS011;6606;49.154;9.280;2022-08-16T15:05:28;3.03;;;2.42;;
13079;SDS011;6606;49.154;9.280;2022-08-16T15:07:55;2.70;;;2.47;;
13079;SDS011;6606;49.154;9.280;2022-08-16T15:10:22;2.50;;;2.30;;